首页
METAR-TAF:

METAR-TAF

机场 :

莫林, 伊利诺伊州, 美国

纬度: 41-27-05N, 经度: 090-30-53W, 海拔: 179米

当前天气观测

该预报发布于1小时和17分钟前的04:52 UTC
风速5节,风向东转东南
温度 27°C
湿度 66%
气压 1008 hPa
能見度: 16.1公里
天空无云

METAR: KMLI 250452Z AUTO 12005KT 10SM CLR 27/20 A2978 RMK AO2 SLP077 T02670200

时间: 01:09 (06:09 UTC)

预报

该预报发布于42分钟前的05:27 UTC
预报有效从25日的 06点(UTC)到 26日的 06点(UTC)
风速10节,风向,有时为19节阵风
能見度: 10公里
少量云层高于8000英尺
散云层高于25000英尺
从 25日的 0700点(UTC)
风速11节,风向,有时为20节阵风
能見度: 10公里
多云层高于25000英尺
几率 30%
从 25日的 14点(UTC)到 25日的 17点(UTC)
能見度: 8.0公里
多云层高于3000英尺, 积雨云.
雷暴, 小雨
从 25日的 1700点(UTC)
风速10节,风向西转西南,有时为19节阵风
能見度: 10公里
散云层高于10000英尺
几率 30%
从 25日的 23点(UTC)到 26日的 01点(UTC)
能見度: 6.4公里
多云层高于4000英尺, 积雨云.
雷暴, 雨
从 26日的 0100点(UTC)
风速6节,风向西
能見度: 10公里
多云层高于5000英尺, 积雨云.
雷暴, 小雨,

TAF: KMLI 250527Z 2506/2606 17010G19KT P6SM FEW080 SCT250 FM250700 19011G20KT P6SM BKN250 WS020/23045KT PROB30 2514/2517 5SM -TSRA BKN030CB FM251700 25010G19KT P6SM SCT100 PROB30 2523/2601 4SM TSRA BKN040CB FM260100 27006KT P6SM -TSRA BKN050CB

超过4000个机场的气象观测和天气预报(METAR&TAF报告)。

可查询的气象台以黄色和红色小点在地图上表示。

将鼠标移到小点上方,可查看气象台名称。

然后点击查看天气观测和预报。

如需切换地图:点击带黑十字的绿色按钮放大地图;点击带横线的绿色按钮缩小地图;或者点击绿色箭头查看邻近地区的地图。


METAR-TAF: